Time;durP1;ratioP1;P1;durP2;ratioP2;P2;SDS_P1;SDS_P2;PMS_P1;PMS_P2;Temp;Humidity;BMP_temperature;BMP_pressure;BME280_temperature;BME280_humidity;BME280_pressure;Samples;Min_cycle;Max_cycle;Signal;HPM_P1;HPM_P2
2022/12/07 00:01:06;;;;;;;8.55;1.58;;;4.50;99.90;;;;;;5075223;28;20346;-65
2022/12/07 00:03:31;;;;;;;7.50;1.77;;;4.50;99.90;;;;;;5094498;28;20502;-66
2022/12/07 00:05:58;;;;;;;13.35;2.38;;;4.50;99.90;;;;;;5059702;28;20126;-65
2022/12/07 00:08:24;;;;;;;5.15;1.23;;;4.50;99.90;;;;;;5094440;28;20068;-65
2022/12/07 00:10:49;;;;;;;8.43;1.60;;;4.40;99.90;;;;;;5091757;28;20461;-65
2022/12/07 00:13:15;;;;;;;8.63;1.70;;;4.50;99.90;;;;;;5093604;28;20044;-62
2022/12/07 00:15:40;;;;;;;8.00;1.35;;;4.50;99.90;;;;;;5094064;28;20039;-63
2022/12/07 00:18:06;;;;;;;4.78;1.10;;;4.50;99.90;;;;;;5076555;28;20044;-65
2022/12/07 00:20:31;;;;;;;7.72;1.80;;;4.40;99.90;;;;;;5071589;28;20045;-66
2022/12/07 00:22:57;;;;;;;6.63;1.45;;;4.40;99.90;;;;;;5076771;28;20075;-64
2022/12/07 00:25:22;;;;;;;6.40;1.77;;;4.40;99.90;;;;;;5075715;28;20411;-64
2022/12/07 00:27:48;;;;;;;4.88;1.48;;;4.40;99.90;;;;;;5080395;28;20449;-64
2022/12/07 00:30:14;;;;;;;8.18;1.90;;;4.30;99.90;;;;;;5089707;28;20086;-63
2022/12/07 00:32:40;;;;;;;9.30;1.65;;;4.20;99.90;;;;;;5074483;28;20115;-64
2022/12/07 00:35:05;;;;;;;9.15;2.42;;;4.20;99.90;;;;;;5093931;28;20123;-64
2022/12/07 00:37:31;;;;;;;5.25;1.45;;;4.30;99.90;;;;;;5063578;28;20084;-64
2022/12/07 00:39:57;;;;;;;7.70;1.98;;;4.20;99.90;;;;;;5072325;28;20040;-63
2022/12/07 00:42:22;;;;;;;7.28;1.42;;;4.20;99.90;;;;;;5066570;28;20109;-64
2022/12/07 00:44:48;;;;;;;6.35;1.27;;;4.20;99.90;;;;;;5076266;28;20051;-64
2022/12/07 00:47:13;;;;;;;8.32;1.52;;;4.20;99.90;;;;;;5058846;28;20135;-64
2022/12/07 00:49:39;;;;;;;7.45;1.40;;;4.10;99.90;;;;;;5075872;28;20039;-64
2022/12/07 00:52:04;;;;;;;6.82;1.80;;;4.00;99.90;;;;;;5080331;28;20040;-63
2022/12/07 00:54:30;;;;;;;8.95;1.42;;;4.10;99.90;;;;;;5076085;28;20320;-63
2022/12/07 00:56:56;;;;;;;11.80;2.03;;;4.00;99.90;;;;;;5075401;28;20504;-63
2022/12/07 00:59:21;;;;;;;4.25;1.50;;;4.10;99.90;;;;;;5092837;28;20044;-63
2022/12/07 01:01:48;;;;;;;7.03;1.20;;;4.00;99.90;;;;;;5076846;28;20051;-63
2022/12/07 01:04:13;;;;;;;8.05;1.58;;;4.00;99.90;;;;;;5093489;28;20125;-64
2022/12/07 01:06:41;;;;;;;6.55;1.55;;;3.90;99.90;;;;;;5093360;28;20446;-63
2022/12/07 01:09:06;;;;;;;8.32;1.58;;;3.90;99.90;;;;;;5093742;28;20043;-64
2022/12/07 01:11:32;;;;;;;4.90;1.33;;;3.90;99.90;;;;;;5072831;28;20078;-64
2022/12/07 01:14:00;;;;;;;8.13;1.90;;;3.90;99.90;;;;;;5093468;28;20294;-63
2022/12/07 01:16:28;;;;;;;4.93;1.13;;;3.80;99.90;;;;;;5093067;28;20044;-64
2022/12/07 01:18:56;;;;;;;5.88;1.20;;;3.90;99.90;;;;;;5075030;28;20531;-64
2022/12/07 01:21:25;;;;;;;4.05;1.13;;;3.80;99.90;;;;;;5070804;28;20464;-64
2022/12/07 01:23:52;;;;;;;8.63;1.48;;;3.80;99.90;;;;;;5075283;28;20035;-63
2022/12/07 01:26:22;;;;;;;5.47;1.30;;;3.80;99.90;;;;;;5056920;28;20481;-63
2022/12/07 01:28:54;;;;;;;9.88;2.33;;;3.90;99.90;;;;;;5052670;28;20044;-63
2022/12/07 01:31:23;;;;;;;6.88;1.25;;;3.80;99.90;;;;;;5045642;28;20040;-63
2022/12/07 01:33:53;;;;;;;7.88;2.05;;;3.80;99.90;;;;;;5037963;28;20081;-63
2022/12/07 01:36:30;;;;;;;6.65;1.15;;;3.80;99.90;;;;;;5021919;28;20049;-65
2022/12/07 01:38:59;;;;;;;4.85;1.23;;;3.70;99.90;;;;;;5042611;28;20041;-63
2022/12/07 01:41:29;;;;;;;11.43;1.73;;;3.70;99.90;;;;;;5039833;28;20110;-63
2022/12/07 01:44:08;;;;;;;10.65;2.10;;;3.70;99.90;;;;;;5051663;28;20067;-64
2022/12/07 01:46:35;;;;;;;5.78;1.13;;;3.70;99.90;;;;;;5050510;28;20041;-63
2022/12/07 01:49:03;;;;;;;7.07;2.35;;;3.70;99.90;;;;;;5051087;28;20147;-63
2022/12/07 01:51:29;;;;;;;7.72;1.40;;;3.70;99.90;;;;;;5038299;28;20350;-63
2022/12/07 01:53:56;;;;;;;11.63;1.95;;;3.70;99.90;;;;;;5052183;28;20706;-63
2022/12/07 01:56:25;;;;;;;8.40;1.20;;;3.70;99.90;;;;;;5050897;28;20048;-63
2022/12/07 01:58:54;;;;;;;5.80;1.38;;;3.70;99.90;;;;;;5046384;28;20099;-63
2022/12/07 02:01:19;;;;;;;7.65;1.25;;;3.70;99.90;;;;;;5032870;28;20068;-63
2022/12/07 02:03:45;;;;;;;10.60;2.10;;;3.70;99.90;;;;;;5049182;28;20099;-64
2022/12/07 02:06:16;;;;;;;6.47;1.42;;;3.70;99.90;;;;;;5051721;28;20049;-67
2022/12/07 02:08:42;;;;;;;11.07;2.42;;;3.60;99.90;;;;;;5052274;28;20033;-65
2022/12/07 02:11:08;;;;;;;7.20;1.30;;;3.70;99.90;;;;;;5048775;28;20076;-64
2022/12/07 02:13:40;;;;;;;6.80;1.17;;;3.60;99.90;;;;;;5050793;28;20037;-64
2022/12/07 02:16:44;;;;;;;6.82;1.20;;;3.60;99.90;;;;;;5052180;28;20082;-66
2022/12/07 02:19:47;;;;;;;5.60;1.63;;;3.50;99.90;;;;;;4955339;28;20092;-64
2022/12/07 02:22:18;;;;;;;8.48;1.45;;;3.50;99.90;;;;;;4950876;28;20055;-65
2022/12/07 02:24:44;;;;;;;10.00;1.85;;;3.50;99.90;;;;;;4955735;28;20353;-63
2022/12/07 02:27:24;;;;;;;5.65;1.52;;;3.50;99.90;;;;;;5026513;28;20141;-64
2022/12/07 02:30:08;;;;;;;8.45;1.30;;;3.60;99.90;;;;;;5053574;28;20044;-65
2022/12/07 02:33:00;;;;;;;8.57;1.23;;;3.50;99.90;;;;;;5067868;28;20040;-64
2022/12/07 02:36:07;;;;;;;12.90;2.13;;;3.60;99.90;;;;;;5070260;28;20036;-64
2022/12/07 02:38:47;;;;;;;8.18;1.25;;;3.60;99.90;;;;;;4990135;28;20121;-63
2022/12/07 02:41:19;;;;;;;5.43;1.05;;;3.70;99.90;;;;;;4971368;28;20058;-64
2022/12/07 02:43:51;;;;;;;9.38;1.58;;;3.70;99.90;;;;;;5023695;28;20133;-64
2022/12/07 02:46:23;;;;;;;4.63;1.02;;;3.70;99.90;;;;;;5070654;28;20040;-64
2022/12/07 02:48:50;;;;;;;6.72;1.65;;;3.80;99.90;;;;;;5063055;28;20041;-65
2022/12/07 02:51:18;;;;;;;5.47;1.30;;;3.80;99.90;;;;;;5053229;28;20445;-64
2022/12/07 02:53:44;;;;;;;8.90;1.20;;;3.80;99.90;;;;;;5071555;28;20479;-65
2022/12/07 02:56:26;;;;;;;7.47;1.20;;;3.80;99.90;;;;;;5070275;28;20456;-64
2022/12/07 02:59:12;;;;;;;7.60;1.55;;;3.80;99.90;;;;;;5073227;28;20064;-64
2022/12/07 03:01:50;;;;;;;5.15;1.00;;;3.90;99.90;;;;;;5061404;28;20048;-63
2022/12/07 03:04:41;;;;;;;6.85;1.23;;;3.90;99.90;;;;;;5074719;28;20135;-63
2022/12/07 03:07:15;;;;;;;12.15;1.88;;;4.00;99.90;;;;;;5073942;28;20044;-63
2022/12/07 03:10:02;;;;;;;;;;;4.00;99.90;;;;;;5074533;28;20036;-64
2022/12/07 03:12:53;;;;;;;8.68;1.10;;;4.00;99.90;;;;;;5047324;28;19917;-63
2022/12/07 03:15:45;;;;;;;5.72;1.70;;;4.10;99.90;;;;;;5073361;28;20037;-63
2022/12/07 03:18:15;;;;;;;5.22;1.05;;;4.20;99.90;;;;;;5064669;28;20056;-65
2022/12/07 03:20:43;;;;;;;8.13;1.58;;;4.20;99.90;;;;;;5070809;28;20032;-65
2022/12/07 03:23:10;;;;;;;4.63;1.10;;;4.10;99.90;;;;;;5065199;28;20118;-63
2022/12/07 03:25:45;;;;;;;5.13;0.77;;;4.20;99.90;;;;;;5065149;28;20064;-63
2022/12/07 03:28:15;;;;;;;5.57;1.58;;;4.10;99.90;;;;;;5055110;28;20114;-63
2022/12/07 03:30:46;;;;;;;6.82;1.00;;;4.10;99.90;;;;;;5050095;28;20089;-65
2022/12/07 03:33:24;;;;;;;3.72;1.30;;;4.10;99.90;;;;;;5054807;28;20032;-63
2022/12/07 03:35:58;;;;;;;5.88;1.05;;;4.10;99.90;;;;;;5053749;28;20060;-63
2022/12/07 03:38:47;;;;;;;7.43;1.40;;;4.10;99.90;;;;;;5039652;28;20056;-64
2022/12/07 03:41:34;;;;;;;6.47;0.95;;;4.00;99.90;;;;;;5043389;28;20037;-62
2022/12/07 03:44:00;;;;;;;7.88;1.60;;;3.90;99.90;;;;;;5053627;28;20048;-64
2022/12/07 03:46:35;;;;;;;4.82;1.75;;;3.90;99.90;;;;;;5053489;28;20346;-63
2022/12/07 03:49:23;;;;;;;7.07;0.93;;;3.80;99.90;;;;;;5055027;28;20056;-64
2022/12/07 03:52:19;;;;;;;6.38;1.17;;;3.80;99.90;;;;;;5041404;28;20068;-63
2022/12/07 03:55:01;;;;;;;4.93;1.30;;;3.90;99.90;;;;;;5055058;28;20059;-64
2022/12/07 03:57:29;;;;;;;6.57;1.30;;;3.80;99.90;;;;;;5053834;28;20044;-64
2022/12/07 03:59:57;;;;;;;6.97;1.27;;;3.80;99.90;;;;;;5054103;28;20155;-64
2022/12/07 04:02:25;;;;;;;5.57;1.02;;;3.80;99.90;;;;;;5033544;28;20111;-64
2022/12/07 04:04:57;;;;;;;9.43;1.77;;;3.80;99.90;;;;;;5047859;28;20041;-64
2022/12/07 04:07:22;;;;;;;11.18;1.73;;;3.80;99.90;;;;;;5053527;28;20110;-64
2022/12/07 04:09:48;;;;;;;7.80;1.17;;;3.70;99.90;;;;;;5053055;28;20045;-64
2022/12/07 04:12:15;;;;;;;7.90;1.95;;;3.70;99.90;;;;;;5034959;28;20112;-64
2022/12/07 04:14:40;;;;;;;4.63;0.77;;;3.60;99.90;;;;;;5054445;28;20037;-66
2022/12/07 04:17:06;;;;;;;5.95;1.10;;;3.60;99.90;;;;;;5052658;28;20076;-64
2022/12/07 04:19:33;;;;;;;6.70;1.50;;;3.50;99.90;;;;;;5054587;28;20048;-64
2022/12/07 04:22:00;;;;;;;6.30;1.25;;;3.50;99.90;;;;;;5050149;28;20109;-64
2022/12/07 04:24:28;;;;;;;7.32;1.40;;;3.50;99.90;;;;;;5053361;28;20041;-63
2022/12/07 04:26:54;;;;;;;12.15;1.92;;;3.60;99.90;;;;;;5052263;28;20063;-64
2022/12/07 04:29:20;;;;;;;8.18;2.17;;;3.60;99.90;;;;;;5054038;28;20041;-64
2022/12/07 04:31:46;;;;;;;10.77;2.00;;;3.50;99.90;;;;;;5047947;28;20476;-64
2022/12/07 04:34:14;;;;;;;6.72;1.25;;;3.60;99.90;;;;;;5054026;28;20037;-65
2022/12/07 04:36:40;;;;;;;8.20;1.55;;;3.50;99.90;;;;;;5047503;28;20418;-64
2022/12/07 04:39:07;;;;;;;4.53;1.00;;;3.50;99.90;;;;;;5043998;28;20060;-63
2022/12/07 04:41:34;;;;;;;7.10;1.10;;;3.60;99.90;;;;;;5042270;28;20052;-64
2022/12/07 04:44:03;;;;;;;6.28;1.10;;;3.50;99.90;;;;;;5053677;28;20037;-64
2022/12/07 04:46:31;;;;;;;6.30;1.08;;;3.50;99.90;;;;;;5052495;28;20187;-64
2022/12/07 04:48:59;;;;;;;9.68;1.23;;;3.50;99.90;;;;;;5052517;28;20033;-64
2022/12/07 04:51:28;;;;;;;8.55;2.03;;;3.50;99.90;;;;;;5040898;28;20058;-65
2022/12/07 04:53:54;;;;;;;6.53;0.93;;;3.60;99.90;;;;;;5036082;28;20029;-64
2022/12/07 04:56:22;;;;;;;9.73;1.55;;;3.50;99.90;;;;;;5052089;28;20048;-64
2022/12/07 04:58:48;;;;;;;7.25;1.00;;;3.60;99.90;;;;;;5048530;28;20081;-64
2022/12/07 05:01:15;;;;;;;7.40;1.30;;;3.50;99.90;;;;;;5033771;28;20135;-64
2022/12/07 05:03:41;;;;;;;8.88;2.00;;;3.60;99.90;;;;;;5047434;28;20053;-65
2022/12/07 05:06:09;;;;;;;5.63;1.30;;;3.60;99.90;;;;;;5042426;28;20041;-64
2022/12/07 05:08:35;;;;;;;7.32;1.20;;;3.60;99.90;;;;;;5052525;28;20533;-64
2022/12/07 05:11:03;;;;;;;5.00;1.20;;;3.60;99.90;;;;;;5043937;28;20045;-64
2022/12/07 05:13:30;;;;;;;10.50;1.67;;;3.50;99.90;;;;;;5046629;28;20115;-64
2022/12/07 05:15:56;;;;;;;11.20;1.40;;;3.50;99.90;;;;;;5053305;28;20041;-63
2022/12/07 05:18:23;;;;;;;7.60;1.80;;;3.50;99.90;;;;;;5052931;28;20037;-63
2022/12/07 05:20:51;;;;;;;8.98;1.40;;;3.40;99.90;;;;;;5049543;28;20092;-64
2022/12/07 05:23:18;;;;;;;7.80;1.20;;;3.50;99.90;;;;;;5040808;28;20037;-64
2022/12/07 05:25:45;;;;;;;14.65;2.28;;;3.50;99.90;;;;;;5048477;28;20055;-64
2022/12/07 05:28:11;;;;;;;5.88;1.23;;;3.40;99.90;;;;;;5051689;28;20147;-65
2022/12/07 05:30:36;;;;;;;11.43;1.13;;;3.40;99.90;;;;;;5048639;28;20447;-64
2022/12/07 05:33:02;;;;;;;7.20;1.38;;;3.40;99.90;;;;;;5052697;28;20125;-63
2022/12/07 05:35:29;;;;;;;9.25;1.13;;;3.30;99.90;;;;;;5051689;28;20116;-64
2022/12/07 05:37:57;;;;;;;8.90;1.48;;;3.30;99.90;;;;;;5034206;28;20068;-64
2022/12/07 05:40:25;;;;;;;6.35;1.42;;;3.30;99.90;;;;;;5031716;28;20408;-63
2022/12/07 05:42:52;;;;;;;8.52;1.83;;;3.30;99.90;;;;;;5046585;28;20041;-63
2022/12/07 05:45:18;;;;;;;6.70;1.35;;;3.30;99.90;;;;;;5051615;28;20110;-64
2022/12/07 05:47:44;;;;;;;6.82;1.33;;;3.30;99.90;;;;;;5040542;28;20430;-63
2022/12/07 05:50:11;;;;;;;6.28;1.38;;;3.20;99.90;;;;;;5048484;28;20037;-64
2022/12/07 05:52:42;;;;;;;6.78;1.35;;;3.20;99.90;;;;;;5042484;28;20036;-64
2022/12/07 05:55:08;;;;;;;4.75;1.27;;;3.30;99.90;;;;;;5050989;28;20069;-63
2022/12/07 05:57:33;;;;;;;9.45;1.38;;;3.30;99.90;;;;;;5048758;28;20072;-63
2022/12/07 05:59:59;;;;;;;13.00;1.80;;;3.30;99.90;;;;;;5047171;28;20051;-63
2022/12/07 06:02:24;;;;;;;13.07;2.40;;;3.30;99.90;;;;;;5048232;28;20048;-63
2022/12/07 06:04:51;;;;;;;10.57;1.33;;;3.40;99.90;;;;;;5049894;28;20406;-64
2022/12/07 06:07:17;;;;;;;8.00;1.25;;;3.30;99.90;;;;;;5048019;28;20478;-64
2022/12/07 06:09:43;;;;;;;7.70;1.30;;;3.40;99.90;;;;;;5048782;28;20123;-64
2022/12/07 06:14:57;;;;;;;7.40;1.10;;;3.60;99.90;;;;;;5046883;28;20128;-64
2022/12/07 06:17:23;;;;;;;4.18;1.02;;;3.70;99.90;;;;;;5032278;28;20037;-63
2022/12/07 06:19:48;;;;;;;7.10;1.52;;;3.80;99.90;;;;;;5038713;28;20485;-63
2022/12/07 06:22:15;;;;;;;9.80;1.60;;;3.80;99.90;;;;;;5032502;28;20140;-64
2022/12/07 06:24:41;;;;;;;6.78;1.10;;;3.80;99.90;;;;;;5036975;28;20115;-65
2022/12/07 06:27:07;;;;;;;7.20;1.60;;;3.90;99.90;;;;;;5072601;28;20237;-63
2022/12/07 06:29:33;;;;;;;3.00;1.00;;;3.90;99.90;;;;;;5070958;28;20059;-64
2022/12/07 06:31:59;;;;;;;7.07;2.03;;;3.90;99.90;;;;;;5053905;28;20040;-65
2022/12/07 06:34:25;;;;;;;5.90;1.20;;;3.90;99.90;;;;;;5053715;28;20365;-63
2022/12/07 06:36:53;;;;;;;6.28;0.70;;;3.90;99.90;;;;;;5057601;28;20048;-62
2022/12/07 06:39:21;;;;;;;7.93;1.45;;;3.90;99.90;;;;;;5085038;28;20044;-64
2022/12/07 06:41:47;;;;;;;3.15;1.15;;;3.90;99.90;;;;;;5083348;28;20042;-62
2022/12/07 06:44:13;;;;;;;4.78;1.13;;;3.90;99.90;;;;;;5090510;28;20115;-64
2022/12/07 06:46:38;;;;;;;2.67;0.88;;;3.80;99.90;;;;;;5088274;28;20041;-62
2022/12/07 06:49:05;;;;;;;4.30;0.90;;;3.80;99.90;;;;;;5084814;28;20032;-62
2022/12/07 06:51:31;;;;;;;4.97;1.42;;;3.70;99.90;;;;;;5065309;28;20055;-62
2022/12/07 06:53:57;;;;;;;3.92;1.17;;;3.70;99.90;;;;;;5081946;28;20040;-63
2022/12/07 06:56:22;;;;;;;4.70;1.25;;;3.70;99.90;;;;;;5088364;28;20050;-62
2022/12/07 06:58:48;;;;;;;3.13;1.17;;;3.60;99.90;;;;;;5073265;28;20032;-62
2022/12/07 07:01:17;;;;;;;4.20;1.27;;;3.60;99.90;;;;;;5062089;28;20034;-63
2022/12/07 07:03:44;;;;;;;6.70;2.00;;;3.50;99.90;;;;;;5054331;28;20036;-63
2022/12/07 07:06:11;;;;;;;8.60;2.17;;;3.50;99.90;;;;;;5063400;28;20047;-64
2022/12/07 07:08:38;;;;;;;3.42;1.30;;;3.40;99.90;;;;;;5044883;28;20032;-63
2022/12/07 07:11:05;;;;;;;9.93;2.05;;;3.40;99.90;;;;;;5069712;28;20115;-63
2022/12/07 07:13:31;;;;;;;7.15;1.40;;;3.40;99.90;;;;;;5059890;28;20044;-62
2022/12/07 07:15:56;;;;;;;6.97;1.35;;;3.30;99.90;;;;;;5062149;28;20040;-61
2022/12/07 07:18:31;;;;;;;8.65;2.20;;;3.30;99.90;;;;;;5071009;28;20044;-61
2022/12/07 07:20:56;;;;;;;;;;;3.30;99.90;;;;;;5087985;28;20096;-59
2022/12/07 07:23:22;;;;;;;5.10;1.92;;;3.20;99.90;;;;;;5059871;28;20374;-62
2022/12/07 07:25:48;;;;;;;6.88;2.00;;;3.20;99.90;;;;;;5079610;28;20096;-62
2022/12/07 07:28:15;;;;;;;9.85;1.85;;;3.20;99.90;;;;;;5082257;28;20478;-62
2022/12/07 07:30:40;;;;;;;7.22;1.45;;;3.10;99.90;;;;;;5068370;28;20067;-64
2022/12/07 07:33:09;;;;;;;8.40;1.90;;;3.10;99.90;;;;;;5088373;28;20436;-62
2022/12/07 07:35:36;;;;;;;20.08;3.03;;;3.00;99.90;;;;;;5068464;28;20039;-62
2022/12/07 07:38:02;;;;;;;20.85;4.88;;;3.10;99.90;;;;;;5065392;28;20068;-62
2022/12/07 07:40:29;;;;;;;17.95;3.10;;;3.10;99.90;;;;;;5074271;28;20044;-63
2022/12/07 07:42:56;;;;;;;11.73;3.25;;;3.00;99.90;;;;;;5070226;28;20141;-63
2022/12/07 07:45:23;;;;;;;12.13;2.72;;;3.10;99.90;;;;;;5056028;28;20453;-63
2022/12/07 07:47:51;;;;;;;8.68;1.95;;;3.00;99.90;;;;;;5068116;28;20040;-63
2022/12/07 07:50:17;;;;;;;12.32;2.28;;;3.10;99.90;;;;;;5090732;28;20028;-62
2022/12/07 07:52:44;;;;;;;18.75;3.53;;;3.10;99.90;;;;;;5083961;28;20533;-62
2022/12/07 07:55:12;;;;;;;15.93;3.13;;;3.10;99.90;;;;;;5061223;28;20337;-62
2022/12/07 07:57:41;;;;;;;11.48;2.75;;;3.20;99.90;;;;;;5084002;28;20135;-62
2022/12/07 08:00:13;;;;;;;12.25;3.05;;;3.30;99.90;;;;;;5076193;28;20047;-62
2022/12/07 08:02:40;;;;;;;11.13;2.28;;;3.30;99.90;;;;;;5056207;28;20080;-62
2022/12/07 08:05:06;;;;;;;11.43;2.17;;;3.30;99.90;;;;;;5040195;28;20037;-63
2022/12/07 08:07:32;;;;;;;14.88;3.35;;;3.40;99.90;;;;;;5058242;28;20360;-64
2022/12/07 08:09:57;;;;;;;18.50;4.03;;;3.30;99.90;;;;;;5076339;28;20112;-64
2022/12/07 08:12:23;;;;;;;19.48;3.15;;;3.30;99.90;;;;;;5074132;28;20440;-65
2022/12/07 08:14:48;;;;;;;19.77;4.05;;;3.40;99.90;;;;;;5058596;28;20094;-65
2022/12/07 08:17:14;;;;;;;32.03;6.88;;;3.40;99.90;;;;;;5075578;28;20040;-62
2022/12/07 08:19:40;;;;;;;16.15;4.30;;;3.40;99.90;;;;;;5082304;28;20037;-63
2022/12/07 08:22:05;;;;;;;10.13;2.42;;;3.50;99.90;;;;;;5057311;28;20044;-63
2022/12/07 08:24:34;;;;;;;16.50;3.03;;;3.60;99.90;;;;;;5069532;28;20047;-62
2022/12/07 08:26:59;;;;;;;21.83;3.90;;;3.60;99.90;;;;;;5079407;28;20075;-63
2022/12/07 08:29:25;;;;;;;20.17;4.53;;;3.60;99.90;;;;;;5058300;28;20045;-63
2022/12/07 08:31:51;;;;;;;29.30;5.50;;;3.60;99.90;;;;;;5061960;28;20059;-64
2022/12/07 08:34:16;;;;;;;24.13;5.53;;;3.70;99.90;;;;;;5066440;28;20032;-63
2022/12/07 08:36:42;;;;;;;32.78;5.93;;;3.60;99.90;;;;;;5049899;28;20114;-63
2022/12/07 08:39:08;;;;;;;20.55;4.65;;;3.70;99.90;;;;;;5074661;28;20091;-63
2022/12/07 08:41:33;;;;;;;21.38;3.53;;;3.70;99.90;;;;;;5062323;28;20334;-63
2022/12/07 08:43:59;;;;;;;27.70;5.50;;;3.70;99.90;;;;;;5065901;28;20454;-62
2022/12/07 08:46:33;;;;;;;17.55;3.92;;;3.70;99.90;;;;;;5092795;28;20044;-62
2022/12/07 08:49:03;;;;;;;;;;;3.70;99.90;;;;;;5083132;28;20028;-62
2022/12/07 08:51:28;;;;;;;18.58;4.78;;;3.70;99.90;;;;;;5076005;28;20345;-62
2022/12/07 08:53:57;;;;;;;25.90;4.60;;;3.70;99.90;;;;;;5076176;28;20036;-62
2022/12/07 08:56:22;;;;;;;17.92;3.10;;;3.70;99.90;;;;;;5075687;28;20112;-62
2022/12/07 08:58:48;;;;;;;12.55;2.97;;;3.80;99.90;;;;;;5088952;28;20359;-63
2022/12/07 09:01:14;;;;;;;16.63;3.15;;;3.80;99.90;;;;;;5055918;28;20075;-63
2022/12/07 09:03:40;;;;;;;35.50;8.35;;;3.80;99.90;;;;;;5069911;28;20039;-62
2022/12/07 09:06:06;;;;;;;36.03;6.72;;;3.90;99.90;;;;;;5065877;28;20048;-62
2022/12/07 09:08:36;;;;;;;17.38;3.28;;;4.00;99.90;;;;;;5074467;28;20044;-62
2022/12/07 09:11:02;;;;;;;20.80;4.38;;;4.00;99.90;;;;;;5056487;28;20067;-63
2022/12/07 09:13:27;;;;;;;9.30;2.30;;;4.10;99.90;;;;;;5069746;28;20378;-62
2022/12/07 09:15:53;;;;;;;13.38;1.88;;;4.10;99.90;;;;;;5092569;28;20040;-63
2022/12/07 09:18:18;;;;;;;8.63;1.83;;;4.10;99.90;;;;;;5092012;28;20086;-63
2022/12/07 09:20:44;;;;;;;8.35;1.70;;;4.20;99.90;;;;;;5074176;28;20071;-63
2022/12/07 09:23:10;;;;;;;10.18;1.77;;;4.30;99.90;;;;;;5049063;28;20036;-64
2022/12/07 09:25:35;;;;;;;7.63;2.20;;;4.40;99.90;;;;;;5090567;28;20051;-62
2022/12/07 09:28:01;;;;;;;8.57;2.15;;;4.40;99.90;;;;;;5063087;28;20036;-62
2022/12/07 09:30:27;;;;;;;7.47;1.30;;;4.50;99.90;;;;;;5089706;28;20119;-63
2022/12/07 09:32:54;;;;;;;6.13;1.60;;;4.50;99.90;;;;;;5061510;28;20865;-63
2022/12/07 09:35:20;;;;;;;8.82;1.65;;;4.50;99.90;;;;;;5075007;28;20036;-63
2022/12/07 09:37:46;;;;;;;6.85;1.27;;;4.70;99.90;;;;;;5069662;28;20070;-62
2022/12/07 09:40:13;;;;;;;7.05;1.80;;;4.80;99.90;;;;;;5056553;28;20040;-64
2022/12/07 09:42:44;;;;;;;10.65;1.67;;;4.90;99.90;;;;;;5055160;28;20052;-64
2022/12/07 09:45:34;;;;;;;9.38;2.30;;;5.00;99.90;;;;;;5057734;28;20355;-62
2022/12/07 09:48:15;;;;;;;8.55;1.80;;;5.10;99.90;;;;;;5048102;28;20196;-63
2022/12/07 09:50:40;;;;;;;10.00;1.58;;;5.20;99.90;;;;;;5062838;28;20036;-67
2022/12/07 09:53:29;;;;;;;6.97;2.03;;;5.20;99.90;;;;;;5082387;28;20032;-64
2022/12/07 09:55:56;;;;;;;10.27;2.38;;;5.20;99.90;;;;;;5048289;28;20207;-63
2022/12/07 09:58:24;;;;;;;8.85;1.95;;;5.20;99.90;;;;;;5037944;28;20041;-64
2022/12/07 10:01:00;;;;;;;10.27;2.95;;;5.20;99.90;;;;;;5075018;28;20316;-63
2022/12/07 10:03:29;;;;;;;7.40;1.85;;;5.20;99.90;;;;;;5075472;28;20119;-64
2022/12/07 10:05:56;;;;;;;8.10;1.65;;;5.10;99.90;;;;;;5071371;28;20119;-63
2022/12/07 10:08:25;;;;;;;12.48;2.15;;;5.20;99.90;;;;;;5070951;28;20460;-64
2022/12/07 10:10:59;;;;;;;10.00;2.30;;;5.20;99.90;;;;;;5071800;28;20147;-63
2022/12/07 10:13:36;;;;;;;6.55;1.45;;;5.30;99.90;;;;;;5057479;28;20194;-63
2022/12/07 10:16:02;;;;;;;5.88;1.63;;;5.30;99.90;;;;;;5065972;28;20155;-64
2022/12/07 10:18:41;;;;;;;9.73;2.40;;;5.30;99.90;;;;;;5077827;28;20120;-64
2022/12/07 10:21:17;;;;;;;10.07;1.80;;;5.30;99.90;;;;;;5053503;28;20037;-63
2022/12/07 10:24:01;;;;;;;7.47;2.33;;;5.40;99.90;;;;;;5054720;28;20048;-64
2022/12/07 10:26:50;;;;;;;5.57;1.47;;;5.40;99.90;;;;;;5083090;28;20099;-64
2022/12/07 10:29:32;;;;;;;10.10;2.22;;;5.50;99.90;;;;;;5079742;28;20124;-62
2022/12/07 10:32:04;;;;;;;8.57;1.52;;;5.60;99.90;;;;;;5052132;28;20369;-61
2022/12/07 10:34:33;;;;;;;7.85;2.33;;;5.70;99.90;;;;;;5073979;28;20475;-61
2022/12/07 10:37:19;;;;;;;8.82;2.22;;;5.80;99.90;;;;;;5054531;28;20052;-62
2022/12/07 10:39:53;;;;;;;8.23;1.73;;;6.00;99.90;;;;;;5085347;28;20105;-63
2022/12/07 10:42:24;;;;;;;7.57;2.40;;;6.10;99.90;;;;;;5074259;28;20086;-62
2022/12/07 10:45:09;;;;;;;8.82;1.50;;;6.20;99.90;;;;;;5075752;28;20040;-61
2022/12/07 10:48:07;;;;;;;9.02;1.63;;;6.20;99.90;;;;;;5085453;28;20123;-62
2022/12/07 10:50:45;;;;;;;9.00;2.28;;;6.30;99.90;;;;;;5053140;28;20059;-61
2022/12/07 10:53:46;;;;;;;11.13;2.25;;;6.20;99.90;;;;;;5050777;28;20036;-62
2022/12/07 10:56:33;;;;;;;10.77;1.77;;;6.10;99.90;;;;;;5067962;28;20435;-62
2022/12/07 10:59:46;;;;;;;7.57;2.20;;;5.90;99.90;;;;;;5067005;28;20032;-63
2022/12/07 11:02:44;;;;;;;8.45;1.73;;;5.80;99.90;;;;;;5068785;28;20078;-61
2022/12/07 11:05:33;;;;;;;5.85;1.48;;;5.70;99.90;;;;;;5011424;28;20453;-63
2022/12/07 11:08:16;;;;;;;5.57;1.65;;;5.60;99.90;;;;;;5051378;28;20073;-63
2022/12/07 11:10:53;;;;;;;7.55;1.50;;;5.60;99.90;;;;;;5085062;28;20078;-62
2022/12/07 11:13:48;;;;;;;8.68;2.10;;;5.60;99.90;;;;;;5088178;28;20056;-61
2022/12/07 11:16:29;;;;;;;;;;;5.70;99.90;;;;;;5082058;28;20040;-61
2022/12/07 11:19:35;;;;;;;10.18;1.55;;;5.70;99.90;;;;;;5073502;28;19925;-62
2022/12/07 11:22:07;;;;;;;9.15;1.70;;;5.70;99.90;;;;;;5067595;28;20052;-63
2022/12/07 11:24:42;;;;;;;9.23;2.13;;;5.70;99.90;;;;;;5075304;28;20052;-63
2022/12/07 11:27:35;;;;;;;12.10;2.17;;;5.80;99.90;;;;;;5075001;28;20048;-63
2022/12/07 11:30:10;;;;;;;10.98;2.90;;;5.80;99.90;;;;;;5074323;28;20047;-65
2022/12/07 11:33:09;;;;;;;12.10;2.47;;;5.90;99.90;;;;;;5074808;28;20084;-63
2022/12/07 11:35:50;;;;;;;10.15;2.17;;;5.90;99.90;;;;;;5069216;28;20044;-62
2022/12/07 11:38:20;;;;;;;10.07;2.28;;;6.00;99.90;;;;;;5079129;28;20089;-62
2022/12/07 11:40:49;;;;;;;9.43;2.40;;;5.90;99.90;;;;;;5091406;28;20051;-62
2022/12/07 11:43:25;;;;;;;7.43;1.60;;;6.00;99.90;;;;;;5077920;28;20097;-61
2022/12/07 11:46:08;;;;;;;6.47;1.60;;;6.00;99.90;;;;;;5093620;28;20110;-60
2022/12/07 11:48:49;;;;;;;8.45;2.35;;;6.10;99.90;;;;;;5076039;28;20032;-62
2022/12/07 11:51:18;;;;;;;9.75;1.98;;;6.20;99.90;;;;;;5070759;28;20415;-63
2022/12/07 11:53:52;;;;;;;10.30;2.28;;;6.20;99.90;;;;;;5074883;28;20036;-62
2022/12/07 11:56:23;;;;;;;7.95;1.88;;;6.20;99.90;;;;;;5067581;28;20089;-63
2022/12/07 11:58:57;;;;;;;9.30;2.50;;;6.10;99.90;;;;;;5056854;28;20044;-62
2022/12/07 12:01:54;;;;;;;9.25;1.88;;;6.10;99.90;;;;;;5066920;28;20036;-61
2022/12/07 12:05:15;;;;;;;9.27;1.65;;;6.00;99.90;;;;;;5074721;28;20040;-60
2022/12/07 12:07:42;;;;;;;4.60;1.20;;;5.90;99.90;;;;;;4993054;28;20092;-63
2022/12/07 12:10:32;;;;;;;9.38;2.05;;;5.80;99.90;;;;;;5069235;28;20059;-62
2022/12/07 12:13:24;;;;;;;7.93;1.38;;;5.80;99.90;;;;;;5076916;28;20032;-62
2022/12/07 12:16:26;;;;;;;6.50;2.15;;;5.80;99.90;;;;;;5074052;28;20036;-61
2022/12/07 12:19:07;;;;;;;11.10;2.00;;;5.80;99.90;;;;;;5073924;28;20388;-60
2022/12/07 12:21:33;;;;;;;6.95;1.38;;;5.80;99.90;;;;;;5073848;28;20055;-62
2022/12/07 12:24:09;;;;;;;7.55;1.60;;;5.90;99.90;;;;;;5074149;28;20039;-62
2022/12/07 12:26:37;;;;;;;5.75;1.45;;;5.80;99.90;;;;;;5073834;28;20067;-63
2022/12/07 12:29:08;;;;;;;7.55;1.58;;;5.90;99.90;;;;;;5074112;28;20078;-60
2022/12/07 12:31:41;;;;;;;6.15;1.77;;;6.00;99.90;;;;;;5073365;28;20055;-62
2022/12/07 12:34:31;;;;;;;9.93;1.40;;;6.00;99.90;;;;;;5074629;28;20116;-60
2022/12/07 12:36:57;;;;;;;7.68;2.10;;;6.00;99.90;;;;;;5056762;28;20044;-61
2022/12/07 12:39:23;;;;;;;9.40;1.80;;;6.00;99.90;;;;;;5088057;28;20056;-60
2022/12/07 12:44:14;;;;;;;8.43;1.73;;;6.20;99.90;;;;;;5077026;28;20456;-61
2022/12/07 12:47:01;;;;;;;14.55;2.22;;;6.20;99.90;;;;;;5094312;28;20098;-64
2022/12/07 12:49:44;;;;;;;10.55;2.08;;;6.20;99.90;;;;;;5075060;28;20040;-61
2022/12/07 12:52:29;;;;;;;7.47;1.92;;;6.30;99.90;;;;;;5075117;28;20111;-61
2022/12/07 12:55:27;;;;;;;9.13;1.83;;;6.20;99.90;;;;;;5094497;28;20039;-61
2022/12/07 12:58:19;;;;;;;7.60;2.15;;;6.20;99.90;;;;;;5058967;28;20081;-61
2022/12/07 13:01:08;;;;;;;7.35;1.67;;;6.30;99.90;;;;;;5085913;28;20044;-61
2022/12/07 13:03:34;;;;;;;10.77;1.90;;;6.30;99.90;;;;;;5073328;28;20548;-60
2022/12/07 13:06:28;;;;;;;7.25;1.70;;;6.30;99.90;;;;;;5063618;28;20139;-63
2022/12/07 13:08:58;;;;;;;8.18;1.77;;;6.30;99.90;;;;;;5057624;28;20040;-62
2022/12/07 13:11:33;;;;;;;8.55;1.95;;;6.20;99.90;;;;;;5054470;28;20029;-62
2022/12/07 13:14:40;;;;;;;8.82;2.20;;;6.20;99.90;;;;;;5055901;28;20086;-61
2022/12/07 13:17:32;;;;;;;8.90;2.13;;;6.20;99.90;;;;;;5062806;28;20063;-61
2022/12/07 13:19:58;;;;;;;8.27;1.60;;;6.20;99.90;;;;;;5073158;28;20059;-63
2022/12/07 13:22:30;;;;;;;9.45;1.80;;;6.10;99.90;;;;;;5073182;28;20084;-61
2022/12/07 13:25:16;;;;;;;6.72;1.90;;;6.10;99.90;;;;;;5065051;28;20048;-61